Time,TemperatureF,DewpointF,PressureIn,WindDirection,WindDirectionDegrees,WindSpeedMPH,WindSpeedGustMPH,Humidity,HourlyPrecipIn,Conditions,Clouds,dailyrainin,SoftwareType,DateUTC
2013-02-18 00:05:00,50.0,29.0,29.48,SSW,204,4.0,15.0,44,0.00,,,0.00,weatherlink.com 1.10,2013-02-18 06:05:00,
2013-02-18 00:21:00,49.4,29.0,29.47,South,177,9.0,13.0,45,0.00,,,0.00,weatherlink.com 1.10,2013-02-18 06:21:00,
2013-02-18 00:35:00,49.1,29.0,29.46,South,175,4.0,13.0,46,0.00,,,0.00,weatherlink.com 1.10,2013-02-18 06:35:00,
2013-02-18 00:51:00,49.2,29.0,29.45,SSE,156,8.0,15.0,46,0.00,,,0.00,weatherlink.com 1.10,2013-02-18 06:51:00,
2013-02-18 01:06:00,49.0,29.0,29.44,South,169,8.0,17.0,46,0.00,,,0.00,weatherlink.com 1.10,2013-02-18 07:06:00,
2013-02-18 01:22:00,49.1,28.0,29.43,South,180,11.0,16.0,45,0.00,,,0.00,weatherlink.com 1.10,2013-02-18 07:22:00,
2013-02-18 01:36:00,49.2,28.0,29.42,SSW,198,7.0,19.0,44,0.00,,,0.00,weatherlink.com 1.10,2013-02-18 07:36:00,
2013-02-18 01:51:00,49.7,28.0,29.44,SSW,207,8.0,17.0,43,0.00,,,0.00,weatherlink.com 1.10,2013-02-18 07:51:00,
2013-02-18 02:06:00,49.0,27.0,29.43,SSW,208,6.0,17.0,43,0.00,,,0.00,weatherlink.com 1.10,2013-02-18 08:06:00,
2013-02-18 02:22:00,48.1,27.0,29.43,SSW,210,7.0,13.0,44,0.00,,,0.00,weatherlink.com 1.10,2013-02-18 08:22:00,
2013-02-18 02:36:00,47.4,27.0,29.44,SW,236,6.0,10.0,45,0.00,,,0.00,weatherlink.com 1.10,2013-02-18 08:36:00,
2013-02-18 02:52:00,47.0,25.0,29.44,SW,230,7.0,15.0,43,0.00,,,0.00,weatherlink.com 1.10,2013-02-18 08:52:00,
2013-02-18 03:07:00,48.0,25.0,29.44,WSW,239,6.0,15.0,41,0.00,,,0.00,weatherlink.com 1.10,2013-02-18 09:07:00,
2013-02-18 03:21:00,47.7,25.0,29.45,WSW,246,5.0,13.0,41,0.00,,,0.00,weatherlink.com 1.10,2013-02-18 09:21:00,
2013-02-18 03:36:00,46.8,25.0,29.44,West,267,4.0,10.0,42,0.00,,,0.00,weatherlink.com 1.10,2013-02-18 09:36:00,
2013-02-18 03:53:00,45.4,24.0,29.44,West,261,5.0,14.0,43,0.00,,,0.00,weatherlink.com 1.10,2013-02-18 09:53:00,
2013-02-18 04:06:00,44.1,24.0,29.44,WNW,296,10.0,11.0,46,0.00,,,0.00,weatherlink.com 1.10,2013-02-18 10:06:00,
2013-02-18 04:23:00,42.3,26.0,29.46,NNW,327,9.0,15.0,53,0.00,,,0.00,weatherlink.com 1.10,2013-02-18 10:23:00,
2013-02-18 04:38:00,41.6,28.0,29.48,NNW,341,17.0,22.0,58,0.00,,,0.00,weatherlink.com 1.10,2013-02-18 10:38:00,
2013-02-18 04:53:00,42.0,29.0,29.51,NNW,340,20.0,26.0,60,0.00,,,0.00,weatherlink.com 1.10,2013-02-18 10:53:00,
2013-02-18 05:07:00,42.0,31.0,29.53,NW,321,14.0,28.0,64,0.00,,,0.00,weatherlink.com 1.10,2013-02-18 11:07:00,
2013-02-18 05:22:00,42.1,31.0,29.54,NNE,21,26.0,31.0,66,0.00,,,0.00,weatherlink.com 1.10,2013-02-18 11:22:00,
2013-02-18 05:39:00,42.0,32.0,29.55,NE,52,5.0,31.0,67,0.00,,,0.00,weatherlink.com 1.10,2013-02-18 11:39:00,
2013-02-18 05:52:00,41.9,32.0,29.55,NNE,23,19.0,28.0,67,0.00,,,0.00,weatherlink.com 1.10,2013-02-18 11:52:00,
2013-02-18 06:08:00,41.9,32.0,29.58,North,5,27.0,29.0,67,0.00,,,0.00,weatherlink.com 1.10,2013-02-18 12:08:00,
2013-02-18 06:23:00,41.4,32.0,29.61,NNW,345,9.0,27.0,68,0.00,,,0.00,weatherlink.com 1.10,2013-02-18 12:23:00,
2013-02-18 06:37:00,40.9,32.0,29.62,NNW,333,16.0,21.0,70,0.00,,,0.00,weatherlink.com 1.10,2013-02-18 12:37:00,
2013-02-18 07:08:00,40.1,31.0,29.66,NNW,340,12.0,28.0,70,0.00,,,0.00,weatherlink.com 1.10,2013-02-18 13:08:00,
2013-02-18 07:24:00,39.7,31.0,29.67,NW,312,12.0,21.0,71,0.00,,,0.00,weatherlink.com 1.10,2013-02-18 13:24:00,
2013-02-18 07:38:00,40.1,31.0,29.68,NNW,341,10.0,22.0,69,0.00,,,0.00,weatherlink.com 1.10,2013-02-18 13:38:00,
2013-02-18 07:54:00,40.0,30.0,29.70,NNE,25,16.0,22.0,68,0.00,,,0.00,weatherlink.com 1.10,2013-02-18 13:54:00,
2013-02-18 08:09:00,40.4,30.0,29.71,NNW,332,11.0,21.0,67,0.00,,,0.00,weatherlink.com 1.10,2013-02-18 14:09:00,
2013-02-18 08:23:00,40.4,30.0,29.73,North,357,13.0,23.0,66,0.00,,,0.00,weatherlink.com 1.10,2013-02-18 14:23:00,
2013-02-18 08:38:00,40.1,29.0,29.75,NW,321,19.0,23.0,66,0.00,,,0.00,weatherlink.com 1.10,2013-02-18 14:38:00,
2013-02-18 08:55:00,40.4,29.0,29.77,NNW,331,15.0,30.0,65,0.00,,,0.00,weatherlink.com 1.10,2013-02-18 14:55:00,
2013-02-18 09:10:00,41.6,29.0,29.77,North,353,18.0,37.0,62,0.00,,,0.00,weatherlink.com 1.10,2013-02-18 15:10:00,
2013-02-18 09:24:00,42.2,29.0,29.78,North,360,13.0,34.0,60,0.00,,,0.00,weatherlink.com 1.10,2013-02-18 15:24:00,
2013-02-18 09:39:00,42.7,29.0,29.79,North,360,18.0,32.0,58,0.00,,,0.00,weatherlink.com 1.10,2013-02-18 15:39:00,
2013-02-18 09:53:00,43.7,29.0,29.80,North,350,17.0,34.0,56,0.00,,,0.00,weatherlink.com 1.10,2013-02-18 15:53:00,
2013-02-18 10:24:00,44.4,29.0,29.82,NNW,337,13.0,29.0,54,0.00,,,0.00,weatherlink.com 1.10,2013-02-18 16:24:00,
2013-02-18 10:39:00,44.5,28.0,29.83,NNW,329,13.0,31.0,52,0.00,,,0.00,weatherlink.com 1.10,2013-02-18 16:39:00,
2013-02-18 10:55:00,43.1,27.0,29.85,NNW,333,14.0,24.0,54,0.00,,,0.00,weatherlink.com 1.10,2013-02-18 16:55:00,
2013-02-18 11:10:00,43.5,28.0,29.85,NW,316,13.0,28.0,54,0.00,,,0.00,weatherlink.com 1.10,2013-02-18 17:10:00,
2013-02-18 11:25:00,44.5,28.0,29.85,North,351,15.0,26.0,52,0.00,,,0.00,weatherlink.com 1.10,2013-02-18 17:25:00,
2013-02-18 11:41:00,45.6,28.0,29.86,NW,324,23.0,27.0,50,0.00,,,0.00,weatherlink.com 1.10,2013-02-18 17:41:00,
2013-02-18 11:54:00,46.5,27.0,29.86,North,359,14.0,25.0,47,0.00,,,0.00,weatherlink.com 1.10,2013-02-18 17:54:00,
2013-02-18 12:11:00,46.3,26.0,29.87,NNW,333,10.0,32.0,46,0.00,,,0.00,weatherlink.com 1.10,2013-02-18 18:11:00,
2013-02-18 12:25:00,47.1,25.0,29.87,NNW,335,14.0,35.0,43,0.00,,,0.00,weatherlink.com 1.10,2013-02-18 18:25:00,
2013-02-18 12:41:00,47.6,25.0,29.87,NNW,329,13.0,30.0,42,0.00,,,0.00,weatherlink.com 1.10,2013-02-18 18:41:00,
2013-02-18 12:55:00,48.0,26.0,29.88,NNW,348,12.0,25.0,42,0.00,,,0.00,weatherlink.com 1.10,2013-02-18 18:55:00,
2013-02-18 13:10:00,48.4,27.0,29.88,NW,316,19.0,29.0,43,0.00,,,0.00,weatherlink.com 1.10,2013-02-18 19:10:00,
2013-02-18 13:25:00,48.2,26.0,29.88,NNW,337,14.0,25.0,42,0.00,,,0.00,weatherlink.com 1.10,2013-02-18 19:25:00,
2013-02-18 13:41:00,48.7,25.0,29.88,North,352,15.0,26.0,39,0.00,,,0.00,weatherlink.com 1.10,2013-02-18 19:41:00,
2013-02-18 13:56:00,49.1,25.0,29.88,NW,316,22.0,27.0,39,0.00,,,0.00,weatherlink.com 1.10,2013-02-18 19:56:00,
2013-02-18 14:10:00,49.2,24.0,29.88,NNW,339,22.0,28.0,37,0.00,,,0.00,weatherlink.com 1.10,2013-02-18 20:10:00,
2013-02-18 14:26:00,49.4,24.0,29.88,NW,315,15.0,23.0,37,0.00,,,0.00,weatherlink.com 1.10,2013-02-18 20:26:00,
2013-02-18 14:41:00,49.6,23.0,29.88,NNW,344,8.0,27.0,35,0.00,,,0.00,weatherlink.com 1.10,2013-02-18 20:41:00,
2013-02-18 14:56:00,50.2,23.0,29.89,NNW,328,12.0,25.0,34,0.00,,,0.00,weatherlink.com 1.10,2013-02-18 20:56:00,
2013-02-18 15:11:00,49.9,22.0,29.89,NNW,327,17.0,21.0,34,0.00,,,0.00,weatherlink.com 1.10,2013-02-18 21:11:00,
2013-02-18 15:26:00,49.9,21.0,29.90,NNW,333,17.0,24.0,32,0.00,,,0.00,weatherlink.com 1.10,2013-02-18 21:26:00,
2013-02-18 15:41:00,50.2,20.0,29.91,NNW,344,20.0,26.0,31,0.00,,,0.00,weatherlink.com 1.10,2013-02-18 21:41:00,
2013-02-18 15:56:00,49.9,19.0,29.91,North,349,10.0,26.0,29,0.00,,,0.00,weatherlink.com 1.10,2013-02-18 21:56:00,
2013-02-18 16:11:00,49.8,19.0,29.92,NNW,341,12.0,21.0,30,0.00,,,0.00,weatherlink.com 1.10,2013-02-18 22:11:00,
2013-02-18 16:26:00,49.4,19.0,29.93,NNE,25,4.0,19.0,30,0.00,,,0.00,weatherlink.com 1.10,2013-02-18 22:26:00,
2013-02-18 16:41:00,48.9,20.0,29.93,NW,320,12.0,21.0,32,0.00,,,0.00,weatherlink.com 1.10,2013-02-18 22:41:00,
2013-02-18 16:56:00,48.4,19.0,29.94,North,354,6.0,21.0,31,0.00,,,0.00,weatherlink.com 1.10,2013-02-18 22:56:00,
2013-02-18 17:11:00,47.9,19.0,29.95,North,358,8.0,22.0,32,0.00,,,0.00,weatherlink.com 1.10,2013-02-18 23:11:00,
2013-02-18 17:26:00,47.3,18.0,29.96,North,354,11.0,21.0,31,0.00,,,0.00,weatherlink.com 1.10,2013-02-18 23:26:00,
2013-02-18 17:40:00,46.7,18.0,29.96,North,360,12.0,19.0,32,0.00,,,0.00,weatherlink.com 1.10,2013-02-18 23:40:00,
2013-02-18 17:57:00,45.9,19.0,29.97,North,353,4.0,16.0,34,0.00,,,0.00,weatherlink.com 1.10,2013-02-18 23:57:00,
2013-02-18 18:11:00,44.8,19.0,29.98,North,360,7.0,15.0,35,0.00,,,0.00,weatherlink.com 1.10,2013-02-19 00:11:00,
2013-02-18 18:26:00,43.8,18.0,29.99,North,358,3.0,11.0,36,0.00,,,0.00,weatherlink.com 1.10,2013-02-19 00:26:00,
2013-02-18 18:42:00,42.6,18.0,30.00,North,5,2.0,10.0,38,0.00,,,0.00,weatherlink.com 1.10,2013-02-19 00:42:00,
2013-02-18 18:57:00,41.5,18.0,30.00,NNE,23,2.0,8.0,39,0.00,,,0.00,weatherlink.com 1.10,2013-02-19 00:57:00,
2013-02-18 19:11:00,40.5,18.0,30.02,NNE,15,0.0,6.0,41,0.00,,,0.00,weatherlink.com 1.10,2013-02-19 01:11:00,
2013-02-18 19:27:00,39.8,18.0,30.03,North,349,1.0,6.0,42,0.00,,,0.00,weatherlink.com 1.10,2013-02-19 01:27:00,
2013-02-18 19:42:00,39.2,18.0,30.03,North,5,1.0,7.0,43,0.00,,,0.00,weatherlink.com 1.10,2013-02-19 01:42:00,
2013-02-18 19:57:00,38.2,18.0,30.04,North,5,0.0,5.0,45,0.00,,,0.00,weatherlink.com 1.10,2013-02-19 01:57:00,
2013-02-18 20:12:00,37.4,19.0,30.05,North,5,0.0,3.0,47,0.00,,,0.00,weatherlink.com 1.10,2013-02-19 02:12:00,
2013-02-18 20:27:00,36.4,19.0,30.05,North,5,4.0,5.0,49,0.00,,,0.00,weatherlink.com 1.10,2013-02-19 02:27:00,
2013-02-18 20:43:00,35.9,18.0,30.06,North,5,1.0,7.0,49,0.00,,,0.00,weatherlink.com 1.10,2013-02-19 02:43:00,
2013-02-18 20:57:00,35.7,18.0,30.05,NNE,15,3.0,8.0,48,0.00,,,0.00,weatherlink.com 1.10,2013-02-19 02:57:00,
2013-02-18 21:12:00,36.0,18.0,30.06,North,5,4.0,7.0,48,0.00,,,0.00,weatherlink.com 1.10,2013-02-19 03:12:00,
2013-02-18 21:27:00,36.1,18.0,30.06,NNE,15,2.0,6.0,48,0.00,,,0.00,weatherlink.com 1.10,2013-02-19 03:27:00,
2013-02-18 21:43:00,35.6,18.0,30.07,North,5,3.0,6.0,49,0.00,,,0.00,weatherlink.com 1.10,2013-02-19 03:43:00,
2013-02-18 21:57:00,35.1,18.0,30.08,North,5,0.0,0.0,50,0.00,,,0.00,weatherlink.com 1.10,2013-02-19 03:57:00,
2013-02-18 22:12:00,34.6,19.0,30.09,North,5,0.0,1.0,54,0.00,,,0.00,weatherlink.com 1.10,2013-02-19 04:12:00,
2013-02-18 22:28:00,33.9,19.0,30.09,North,5,0.0,0.0,55,0.00,,,0.00,weatherlink.com 1.10,2013-02-19 04:28:00,
2013-02-18 22:43:00,33.8,19.0,30.09,North,5,0.0,0.0,55,0.00,,,0.00,weatherlink.com 1.10,2013-02-19 04:43:00,
2013-02-18 22:58:00,33.4,19.0,30.10,North,5,1.0,2.0,56,0.00,,,0.00,weatherlink.com 1.10,2013-02-19 04:58:00,
2013-02-18 23:12:00,32.6,19.0,30.10,North,5,1.0,3.0,58,0.00,,,0.00,weatherlink.com 1.10,2013-02-19 05:12:00,
2013-02-18 23:29:00,31.8,18.0,30.10,North,5,0.0,0.0,58,0.00,,,0.00,weatherlink.com 1.10,2013-02-19 05:29:00,
2013-02-18 23:43:00,31.2,18.0,30.10,North,5,0.0,0.0,59,0.00,,,0.00,weatherlink.com 1.10,2013-02-19 05:43:00,
2013-02-18 23:58:00,30.5,19.0,30.11,North,5,0.0,0.0,62,0.00,,,0.00,weatherlink.com 1.10,2013-02-19 05:58:00,